EWG48K EDDH-LFMN
Flight info
| Callsign | EWG48K |
|---|---|
| Flight time | 2h 0m |
| Altitude | 37000 |
| Route | IDEKO7G/33 IDEKO N850 XAROL/N0446F360 DCT BOMBI DCT GIGET/N0447F380 DCT ABUKA DCT KRH DCT NATOR/N0446F370 DCT TRA DCT RIPUS DCT GERSA DCT SOSON DCT ODINA DCT ENOBA Z185 BORDI |
| Aircraft | A319/M-SDE3FGHIRWY/LB1 |
Departure
| Time | 2026-05-05 09:32 |
|---|---|
| Airport | Hamburg Helmut Schmidt Airport (EDDH) |
Arrival
| Time | 2026-05-05 11:32 |
|---|---|
| Airport | Nice-Côte d'Azur Airport (LFMN) |
| Time | Latitude | Longitude | Altitude | Speed | Heading |
|---|---|---|---|---|---|
| 2026-05-05 08:53 | 53.63112 | 10.00378 | 46 ft | 0 kts | 87° |
| 2026-05-05 08:53 | 53.63112 | 10.00383 | 47 ft | 0 kts | 87° |
| 2026-05-05 09:25 | 53.63112 | 10.00382 | 46 ft | 1 kts | 87° |
| 2026-05-05 09:25 | 53.63111 | 10.00341 | 48 ft | 4 kts | 87° |
| 2026-05-05 09:25 | 53.63110 | 10.00296 | 48 ft | 4 kts | 87° |
| 2026-05-05 09:26 | 53.63109 | 10.00260 | 47 ft | 4 kts | 89° |
| 2026-05-05 09:26 | 53.63111 | 10.00216 | 47 ft | 4 kts | 113° |
| 2026-05-05 09:26 | 53.63123 | 10.00191 | 48 ft | 3 kts | 173° |
| 2026-05-05 09:26 | 53.63126 | 10.00190 | 48 ft | 0 kts | 175° |
| 2026-05-05 09:29 | 53.63120 | 10.00191 | 48 ft | 1 kts | 175° |
| 2026-05-05 09:29 | 53.63079 | 10.00190 | 48 ft | 9 kts | 192° |
| 2026-05-05 09:29 | 53.63019 | 10.00132 | 47 ft | 11 kts | 213° |
| 2026-05-05 09:29 | 53.62946 | 10.00048 | 47 ft | 13 kts | 221° |
| 2026-05-05 09:30 | 53.62897 | 9.99927 | 48 ft | 10 kts | 242° |
| 2026-05-05 09:30 | 53.62877 | 9.99861 | 47 ft | 5 kts | 245° |
| 2026-05-05 09:30 | 53.62860 | 9.99767 | 45 ft | 11 kts | 276° |
| 2026-05-05 09:30 | 53.62883 | 9.99727 | 42 ft | 1 kts | 333° |
| 2026-05-05 09:31 | 53.62974 | 9.99652 | 42 ft | 43 kts | 334° |
| 2026-05-05 09:31 | 53.63438 | 9.99254 | 46 ft | 105 kts | 333° |
| 2026-05-05 09:31 | 53.64264 | 9.98542 | 52 ft | 157 kts | 333° |
| 2026-05-05 09:31 | 53.65324 | 9.97614 | 508 ft | 165 kts | 334° |
| 2026-05-05 09:32 | 53.66331 | 9.96749 | 1185 ft | 163 kts | 335° |
| 2026-05-05 09:32 | 53.67343 | 9.95890 | 1802 ft | 162 kts | 335° |
| 2026-05-05 09:32 | 53.68369 | 9.95019 | 2339 ft | 167 kts | 335° |
| 2026-05-05 09:32 | 53.69405 | 9.94151 | 2941 ft | 165 kts | 335° |
| 2026-05-05 09:33 | 53.70438 | 9.93272 | 3477 ft | 173 kts | 333° |
| 2026-05-05 09:33 | 53.71314 | 9.91737 | 3792 ft | 196 kts | 298° |
| 2026-05-05 09:33 | 53.71553 | 9.89387 | 4184 ft | 215 kts | 265° |
| 2026-05-05 09:33 | 53.71194 | 9.86782 | 4501 ft | 242 kts | 253° |
| 2026-05-05 09:34 | 53.70603 | 9.83943 | 5024 ft | 262 kts | 250° |
| 2026-05-05 09:34 | 53.69971 | 9.80997 | 5790 ft | 272 kts | 251° |
| 2026-05-05 09:34 | 53.69222 | 9.78020 | 6762 ft | 271 kts | 239° |
| 2026-05-05 09:34 | 53.67939 | 9.75669 | 7677 ft | 277 kts | 215° |
| 2026-05-05 09:35 | 53.66169 | 9.74390 | 8592 ft | 280 kts | 196° |
| 2026-05-05 09:35 | 53.62375 | 9.72721 | 9829 ft | 283 kts | 196° |
| 2026-05-05 09:35 | 53.60457 | 9.71878 | 10197 ft | 290 kts | 197° |
| 2026-05-05 09:36 | 53.58424 | 9.70979 | 10432 ft | 313 kts | 197° |
| 2026-05-05 09:36 | 53.56277 | 9.70022 | 10949 ft | 323 kts | 197° |
| 2026-05-05 09:36 | 53.54089 | 9.69048 | 11664 ft | 327 kts | 197° |
| 2026-05-05 09:36 | 53.51881 | 9.68070 | 12397 ft | 330 kts | 197° |
| 2026-05-05 09:37 | 53.49649 | 9.67084 | 13110 ft | 333 kts | 197° |
| 2026-05-05 09:37 | 53.47400 | 9.66092 | 13800 ft | 336 kts | 197° |
| 2026-05-05 09:37 | 53.45133 | 9.65088 | 14475 ft | 339 kts | 197° |
| 2026-05-05 09:37 | 53.42818 | 9.64063 | 15148 ft | 341 kts | 197° |
| 2026-05-05 09:38 | 53.40539 | 9.63056 | 15784 ft | 344 kts | 197° |
| 2026-05-05 09:38 | 53.38186 | 9.62016 | 16429 ft | 347 kts | 197° |
| 2026-05-05 09:38 | 53.35847 | 9.60982 | 17045 ft | 350 kts | 197° |
| 2026-05-05 09:38 | 53.33481 | 9.59934 | 17662 ft | 352 kts | 197° |
| 2026-05-05 09:39 | 53.31103 | 9.58881 | 18254 ft | 355 kts | 197° |
| 2026-05-05 09:39 | 53.28703 | 9.57824 | 18828 ft | 358 kts | 197° |
| 2026-05-05 09:39 | 53.26286 | 9.56766 | 19410 ft | 361 kts | 197° |
| 2026-05-05 09:39 | 53.23847 | 9.55701 | 19985 ft | 363 kts | 197° |
| 2026-05-05 09:40 | 53.21393 | 9.54632 | 20547 ft | 366 kts | 197° |
| 2026-05-05 09:40 | 53.18922 | 9.53552 | 21084 ft | 368 kts | 197° |
| 2026-05-05 09:40 | 53.16438 | 9.52464 | 21602 ft | 371 kts | 197° |
| 2026-05-05 09:40 | 53.13931 | 9.51366 | 22095 ft | 374 kts | 197° |
| 2026-05-05 09:41 | 53.11405 | 9.50262 | 22583 ft | 376 kts | 197° |
| 2026-05-05 09:41 | 53.08828 | 9.49138 | 23067 ft | 379 kts | 198° |
| 2026-05-05 09:41 | 53.06273 | 9.48022 | 23521 ft | 382 kts | 198° |
| 2026-05-05 09:41 | 53.03685 | 9.46895 | 23979 ft | 384 kts | 198° |
| 2026-05-05 09:42 | 53.01106 | 9.45779 | 24422 ft | 386 kts | 198° |
| 2026-05-05 09:42 | 52.98469 | 9.44830 | 24844 ft | 391 kts | 191° |
| 2026-05-05 09:42 | 52.95758 | 9.44249 | 25262 ft | 393 kts | 191° |
| 2026-05-05 09:42 | 52.93036 | 9.43672 | 25692 ft | 395 kts | 191° |
| 2026-05-05 09:43 | 52.90302 | 9.43094 | 26102 ft | 397 kts | 191° |
| 2026-05-05 09:43 | 52.87555 | 9.42511 | 26499 ft | 399 kts | 191° |
| 2026-05-05 09:43 | 52.84790 | 9.41925 | 26887 ft | 402 kts | 191° |
| 2026-05-05 09:43 | 52.82014 | 9.41340 | 27284 ft | 403 kts | 191° |
| 2026-05-05 09:44 | 52.79225 | 9.40756 | 27668 ft | 405 kts | 191° |
| 2026-05-05 09:44 | 52.76420 | 9.40167 | 28050 ft | 407 kts | 192° |
| 2026-05-05 09:44 | 52.73600 | 9.39565 | 28419 ft | 409 kts | 192° |
| 2026-05-05 09:44 | 52.70773 | 9.38959 | 28784 ft | 411 kts | 192° |
| 2026-05-05 09:45 | 52.67934 | 9.38348 | 29145 ft | 412 kts | 192° |
| 2026-05-05 09:45 | 52.65084 | 9.37736 | 29489 ft | 414 kts | 192° |
| 2026-05-05 09:45 | 52.63149 | 9.37322 | 29714 ft | 415 kts | 192° |
| 2026-05-05 09:45 | 52.60284 | 9.36677 | 30037 ft | 416 kts | 193° |
| 2026-05-05 09:46 | 52.57417 | 9.35952 | 30358 ft | 417 kts | 194° |
| 2026-05-05 09:46 | 52.54546 | 9.35180 | 30673 ft | 419 kts | 194° |
| 2026-05-05 09:46 | 52.51664 | 9.34387 | 30972 ft | 421 kts | 194° |
| 2026-05-05 09:46 | 52.48767 | 9.33592 | 31260 ft | 423 kts | 194° |
| 2026-05-05 09:47 | 52.45859 | 9.32811 | 31556 ft | 424 kts | 194° |
| 2026-05-05 09:47 | 52.42948 | 9.32047 | 31960 ft | 423 kts | 194° |
| 2026-05-05 09:47 | 52.40050 | 9.31300 | 32356 ft | 421 kts | 194° |
| 2026-05-05 09:47 | 52.37155 | 9.30558 | 32716 ft | 421 kts | 194° |
| 2026-05-05 09:48 | 52.33720 | 9.29672 | 33166 ft | 420 kts | 194° |
| 2026-05-05 09:48 | 52.30839 | 9.28922 | 33534 ft | 418 kts | 194° |
| 2026-05-05 09:48 | 52.27968 | 9.28172 | 33901 ft | 417 kts | 194° |
| 2026-05-05 09:48 | 52.25102 | 9.27421 | 34266 ft | 416 kts | 194° |
| 2026-05-05 09:49 | 52.22240 | 9.26687 | 34607 ft | 417 kts | 193° |
| 2026-05-05 09:49 | 52.19359 | 9.26068 | 34926 ft | 418 kts | 192° |
| 2026-05-05 09:49 | 52.16430 | 9.25542 | 35233 ft | 419 kts | 191° |
| 2026-05-05 09:49 | 52.13526 | 9.25068 | 35520 ft | 419 kts | 191° |
| 2026-05-05 09:50 | 52.10622 | 9.24603 | 35790 ft | 420 kts | 191° |
| 2026-05-05 09:50 | 52.07718 | 9.24125 | 36059 ft | 420 kts | 191° |
| 2026-05-05 09:50 | 52.04812 | 9.23618 | 36315 ft | 419 kts | 191° |
| 2026-05-05 09:50 | 52.01921 | 9.22989 | 36541 ft | 419 kts | 193° |
| 2026-05-05 09:51 | 51.99046 | 9.22245 | 36763 ft | 419 kts | 194° |
| 2026-05-05 09:51 | 51.96176 | 9.21439 | 36889 ft | 417 kts | 194° |
| 2026-05-05 09:51 | 51.90500 | 9.19835 | 36918 ft | 411 kts | 194° |
| 2026-05-05 09:52 | 51.84869 | 9.18385 | 36915 ft | 409 kts | 192° |
| 2026-05-05 09:52 | 51.79220 | 9.17193 | 36913 ft | 409 kts | 191° |
| 2026-05-05 09:53 | 51.73575 | 9.16054 | 36918 ft | 409 kts | 192° |
| 2026-05-05 09:53 | 51.67938 | 9.14854 | 36909 ft | 408 kts | 192° |
| 2026-05-05 09:54 | 51.62307 | 9.13625 | 36909 ft | 408 kts | 192° |
| 2026-05-05 09:54 | 51.56674 | 9.12404 | 36908 ft | 408 kts | 192° |
| 2026-05-05 09:55 | 51.51041 | 9.11197 | 36904 ft | 408 kts | 192° |
| 2026-05-05 09:55 | 51.45468 | 9.09600 | 36907 ft | 406 kts | 196° |
| 2026-05-05 09:56 | 51.39934 | 9.07586 | 36899 ft | 405 kts | 197° |
| 2026-05-05 09:56 | 51.34468 | 9.05607 | 36899 ft | 405 kts | 196° |
| 2026-05-05 09:57 | 51.28891 | 9.03858 | 36903 ft | 407 kts | 192° |
| 2026-05-05 09:57 | 51.23257 | 9.02741 | 36904 ft | 408 kts | 190° |
| 2026-05-05 09:58 | 51.17612 | 9.01792 | 36909 ft | 407 kts | 190° |
| 2026-05-05 09:58 | 51.12934 | 9.00920 | 36897 ft | 407 kts | 191° |
| 2026-05-05 09:59 | 51.07321 | 8.99794 | 36904 ft | 406 kts | 191° |
| 2026-05-05 09:59 | 51.01712 | 8.98658 | 36907 ft | 406 kts | 191° |
| 2026-05-05 10:00 | 50.96110 | 8.97542 | 36908 ft | 406 kts | 191° |
| 2026-05-05 10:00 | 50.90511 | 8.96442 | 36907 ft | 405 kts | 191° |
| 2026-05-05 10:01 | 50.84920 | 8.95346 | 36906 ft | 405 kts | 191° |
| 2026-05-05 10:01 | 50.79300 | 8.94234 | 36906 ft | 405 kts | 191° |
| 2026-05-05 10:02 | 50.73703 | 8.93140 | 36904 ft | 404 kts | 191° |
| 2026-05-05 10:02 | 50.68124 | 8.92052 | 36902 ft | 404 kts | 191° |
| 2026-05-05 10:03 | 50.62779 | 8.91009 | 36897 ft | 404 kts | 191° |
| 2026-05-05 10:03 | 50.57205 | 8.89925 | 36896 ft | 403 kts | 190° |
| 2026-05-05 10:04 | 50.51634 | 8.88846 | 36890 ft | 403 kts | 190° |
| 2026-05-05 10:04 | 50.46068 | 8.87774 | 36893 ft | 403 kts | 190° |
| 2026-05-05 10:05 | 50.40503 | 8.86702 | 36888 ft | 403 kts | 190° |
| 2026-05-05 10:05 | 50.34943 | 8.85627 | 36885 ft | 403 kts | 190° |
| 2026-05-05 10:06 | 50.29378 | 8.84554 | 36885 ft | 402 kts | 190° |
| 2026-05-05 10:06 | 50.23762 | 8.83472 | 36883 ft | 402 kts | 190° |
| 2026-05-05 10:07 | 50.18283 | 8.82430 | 36881 ft | 401 kts | 190° |
| 2026-05-05 10:07 | 50.12708 | 8.81367 | 36875 ft | 401 kts | 190° |
| 2026-05-05 10:08 | 50.07207 | 8.80320 | 36872 ft | 401 kts | 190° |
| 2026-05-05 10:08 | 50.01645 | 8.79232 | 36870 ft | 400 kts | 191° |
| 2026-05-05 10:09 | 49.96132 | 8.78064 | 36870 ft | 400 kts | 190° |
| 2026-05-05 10:09 | 49.90628 | 8.76901 | 36871 ft | 399 kts | 190° |
| 2026-05-05 10:10 | 49.85120 | 8.75759 | 36873 ft | 399 kts | 190° |
| 2026-05-05 10:10 | 49.79614 | 8.74626 | 36873 ft | 399 kts | 190° |
| 2026-05-05 10:11 | 49.74114 | 8.73498 | 36874 ft | 399 kts | 190° |
| 2026-05-05 10:11 | 49.68617 | 8.72363 | 36875 ft | 399 kts | 190° |
| 2026-05-05 10:12 | 49.63117 | 8.71250 | 36874 ft | 398 kts | 190° |
| 2026-05-05 10:12 | 49.57619 | 8.70150 | 36875 ft | 398 kts | 190° |
| 2026-05-05 10:13 | 49.52119 | 8.69042 | 36875 ft | 399 kts | 190° |
| 2026-05-05 10:13 | 49.46616 | 8.67942 | 36874 ft | 399 kts | 189° |
| 2026-05-05 10:14 | 49.41076 | 8.66832 | 36877 ft | 399 kts | 190° |
| 2026-05-05 10:14 | 49.35577 | 8.65707 | 36879 ft | 399 kts | 190° |
| 2026-05-05 10:15 | 49.30072 | 8.64585 | 36881 ft | 399 kts | 190° |
| 2026-05-05 10:15 | 49.24567 | 8.63474 | 36874 ft | 399 kts | 189° |
| 2026-05-05 10:16 | 49.19061 | 8.62372 | 36880 ft | 399 kts | 189° |
| 2026-05-05 10:16 | 49.13551 | 8.61275 | 36883 ft | 400 kts | 189° |
| 2026-05-05 10:17 | 49.08038 | 8.60172 | 36884 ft | 400 kts | 189° |
| 2026-05-05 10:17 | 49.02515 | 8.59073 | 36885 ft | 401 kts | 189° |
| 2026-05-05 10:18 | 48.97000 | 8.57855 | 36885 ft | 400 kts | 192° |
| 2026-05-05 10:18 | 48.91558 | 8.56099 | 36889 ft | 399 kts | 194° |
| 2026-05-05 10:19 | 48.86141 | 8.54198 | 36888 ft | 400 kts | 194° |
| 2026-05-05 10:19 | 48.80704 | 8.52379 | 36888 ft | 400 kts | 193° |
| 2026-05-05 10:20 | 48.75254 | 8.50635 | 36887 ft | 400 kts | 193° |
| 2026-05-05 10:20 | 48.69797 | 8.48902 | 36889 ft | 401 kts | 193° |
| 2026-05-05 10:21 | 48.64341 | 8.47161 | 36888 ft | 401 kts | 193° |
| 2026-05-05 10:21 | 48.58850 | 8.45395 | 36887 ft | 402 kts | 193° |
| 2026-05-05 10:22 | 48.53391 | 8.43650 | 36891 ft | 401 kts | 193° |
| 2026-05-05 10:22 | 48.47932 | 8.41916 | 36885 ft | 401 kts | 193° |
| 2026-05-05 10:23 | 48.42474 | 8.40183 | 36882 ft | 401 kts | 193° |
| 2026-05-05 10:23 | 48.37021 | 8.38445 | 36881 ft | 401 kts | 193° |
| 2026-05-05 10:24 | 48.31565 | 8.36712 | 36879 ft | 401 kts | 193° |
| 2026-05-05 10:24 | 48.26104 | 8.34986 | 36876 ft | 401 kts | 192° |
| 2026-05-05 10:25 | 48.20639 | 8.33267 | 36875 ft | 401 kts | 192° |
| 2026-05-05 10:25 | 48.15086 | 8.32641 | 36876 ft | 403 kts | 176° |
| 2026-05-05 10:26 | 48.09527 | 8.33942 | 36874 ft | 404 kts | 173° |
| 2026-05-05 10:26 | 48.03972 | 8.35284 | 36872 ft | 404 kts | 173° |
| 2026-05-05 10:27 | 47.98423 | 8.36622 | 36871 ft | 404 kts | 173° |
| 2026-05-05 10:27 | 47.92870 | 8.37966 | 36869 ft | 405 kts | 173° |
| 2026-05-05 10:28 | 47.87307 | 8.39303 | 36869 ft | 405 kts | 173° |
| 2026-05-05 10:28 | 47.81735 | 8.40631 | 36869 ft | 406 kts | 173° |
| 2026-05-05 10:29 | 47.76124 | 8.41976 | 36871 ft | 406 kts | 173° |
| 2026-05-05 10:29 | 47.70542 | 8.43319 | 36874 ft | 406 kts | 173° |
| 2026-05-05 10:30 | 47.64952 | 8.44467 | 36876 ft | 406 kts | 176° |
| 2026-05-05 10:30 | 47.60277 | 8.45117 | 36879 ft | 405 kts | 177° |
| 2026-05-05 10:31 | 47.54617 | 8.45831 | 36883 ft | 406 kts | 177° |
| 2026-05-05 10:31 | 47.48992 | 8.46614 | 36889 ft | 406 kts | 176° |
| 2026-05-05 10:32 | 47.43367 | 8.47448 | 36888 ft | 406 kts | 176° |
| 2026-05-05 10:32 | 47.37737 | 8.48292 | 36888 ft | 406 kts | 176° |
| 2026-05-05 10:33 | 47.32111 | 8.49121 | 36890 ft | 407 kts | 176° |
| 2026-05-05 10:33 | 47.26483 | 8.49935 | 36889 ft | 406 kts | 177° |
| 2026-05-05 10:34 | 47.20847 | 8.50755 | 36890 ft | 407 kts | 177° |
| 2026-05-05 10:34 | 47.15185 | 8.51576 | 36890 ft | 407 kts | 177° |
| 2026-05-05 10:35 | 47.09548 | 8.52394 | 36892 ft | 407 kts | 177° |
| 2026-05-05 10:35 | 47.03907 | 8.53213 | 36892 ft | 407 kts | 177° |
| 2026-05-05 10:36 | 46.98269 | 8.54031 | 36890 ft | 407 kts | 177° |
| 2026-05-05 10:36 | 46.92631 | 8.54840 | 36884 ft | 407 kts | 177° |
| 2026-05-05 10:37 | 46.86986 | 8.55647 | 36886 ft | 408 kts | 177° |
| 2026-05-05 10:37 | 46.81335 | 8.56468 | 36887 ft | 408 kts | 177° |
| 2026-05-05 10:38 | 46.75686 | 8.57279 | 36885 ft | 409 kts | 177° |
| 2026-05-05 10:38 | 46.70027 | 8.58085 | 36890 ft | 408 kts | 177° |
| 2026-05-05 10:39 | 46.64374 | 8.58889 | 36901 ft | 408 kts | 178° |
| 2026-05-05 10:39 | 46.58723 | 8.59689 | 36902 ft | 408 kts | 178° |
| 2026-05-05 10:40 | 46.53067 | 8.60487 | 36918 ft | 408 kts | 178° |
| 2026-05-05 10:40 | 46.47413 | 8.61296 | 36930 ft | 409 kts | 178° |
| 2026-05-05 10:41 | 46.41743 | 8.62103 | 36947 ft | 410 kts | 178° |
| 2026-05-05 10:41 | 46.36072 | 8.62900 | 36958 ft | 409 kts | 178° |
| 2026-05-05 10:42 | 46.27523 | 8.64090 | 36981 ft | 409 kts | 178° |
| 2026-05-05 10:43 | 46.21865 | 8.64891 | 36991 ft | 409 kts | 178° |
| 2026-05-05 10:43 | 46.16191 | 8.65693 | 36999 ft | 409 kts | 178° |
| 2026-05-05 10:44 | 46.10522 | 8.66324 | 37004 ft | 407 kts | 185° |
| 2026-05-05 10:44 | 46.04939 | 8.65367 | 37008 ft | 404 kts | 191° |
| 2026-05-05 10:45 | 45.99374 | 8.64223 | 37012 ft | 404 kts | 191° |
| 2026-05-05 10:45 | 45.93802 | 8.63083 | 37012 ft | 405 kts | 191° |
| 2026-05-05 10:46 | 45.88221 | 8.61942 | 37015 ft | 405 kts | 191° |
| 2026-05-05 10:46 | 45.82637 | 8.60816 | 37020 ft | 405 kts | 191° |
| 2026-05-05 10:47 | 45.77043 | 8.59689 | 37026 ft | 406 kts | 191° |
| 2026-05-05 10:47 | 45.71453 | 8.58551 | 37027 ft | 406 kts | 191° |
| 2026-05-05 10:48 | 45.65863 | 8.57414 | 37028 ft | 406 kts | 191° |
| 2026-05-05 10:48 | 45.60231 | 8.56282 | 37028 ft | 406 kts | 191° |
| 2026-05-05 10:49 | 45.54641 | 8.55166 | 37028 ft | 406 kts | 191° |
| 2026-05-05 10:49 | 45.49048 | 8.54041 | 37022 ft | 406 kts | 191° |
| 2026-05-05 10:50 | 45.43455 | 8.52921 | 37021 ft | 406 kts | 191° |
| 2026-05-05 10:50 | 45.37860 | 8.51802 | 37019 ft | 406 kts | 191° |
| 2026-05-05 10:51 | 45.32259 | 8.50685 | 37021 ft | 406 kts | 192° |
| 2026-05-05 10:51 | 45.26661 | 8.49554 | 37021 ft | 406 kts | 192° |
| 2026-05-05 10:52 | 45.21058 | 8.48438 | 37015 ft | 407 kts | 192° |
| 2026-05-05 10:52 | 45.15406 | 8.47322 | 37012 ft | 407 kts | 192° |
| 2026-05-05 10:53 | 45.09803 | 8.46210 | 37009 ft | 407 kts | 192° |
| 2026-05-05 10:53 | 45.04189 | 8.45098 | 37007 ft | 408 kts | 192° |
| 2026-05-05 10:54 | 44.98577 | 8.43997 | 37007 ft | 408 kts | 192° |
| 2026-05-05 10:54 | 44.92937 | 8.42889 | 37008 ft | 411 kts | 192° |
| 2026-05-05 10:54 | 44.90112 | 8.42332 | 36629 ft | 411 kts | 192° |
| 2026-05-05 10:55 | 44.87233 | 8.41760 | 35659 ft | 422 kts | 192° |
| 2026-05-05 10:55 | 44.84302 | 8.41179 | 34796 ft | 428 kts | 192° |
| 2026-05-05 10:55 | 44.81350 | 8.40602 | 34251 ft | 426 kts | 192° |
| 2026-05-05 10:55 | 44.78422 | 8.40037 | 33768 ft | 422 kts | 192° |
| 2026-05-05 10:56 | 44.75528 | 8.39477 | 33300 ft | 419 kts | 192° |
| 2026-05-05 10:56 | 44.72663 | 8.38915 | 32845 ft | 414 kts | 192° |
| 2026-05-05 10:56 | 44.69826 | 8.38356 | 32369 ft | 410 kts | 192° |
| 2026-05-05 10:56 | 44.67015 | 8.37810 | 31904 ft | 406 kts | 192° |
| 2026-05-05 10:57 | 44.64231 | 8.37270 | 31448 ft | 402 kts | 191° |
| 2026-05-05 10:57 | 44.61467 | 8.36734 | 30990 ft | 398 kts | 191° |
| 2026-05-05 10:57 | 44.58734 | 8.36207 | 30539 ft | 395 kts | 191° |
| 2026-05-05 10:57 | 44.56026 | 8.35685 | 30084 ft | 391 kts | 191° |
| 2026-05-05 10:58 | 44.53341 | 8.35164 | 29648 ft | 388 kts | 191° |
| 2026-05-05 10:58 | 44.50685 | 8.34650 | 29218 ft | 383 kts | 191° |
| 2026-05-05 10:58 | 44.48055 | 8.34140 | 28801 ft | 379 kts | 191° |
| 2026-05-05 10:58 | 44.45446 | 8.33639 | 28379 ft | 377 kts | 191° |
| 2026-05-05 10:59 | 44.42860 | 8.33151 | 27970 ft | 374 kts | 191° |
| 2026-05-05 10:59 | 44.40298 | 8.32663 | 27600 ft | 369 kts | 191° |
| 2026-05-05 10:59 | 44.37767 | 8.32172 | 27212 ft | 366 kts | 191° |
| 2026-05-05 10:59 | 44.35261 | 8.31677 | 26824 ft | 363 kts | 191° |
| 2026-05-05 11:00 | 44.32806 | 8.30975 | 26403 ft | 358 kts | 200° |
| 2026-05-05 11:00 | 44.30562 | 8.29545 | 26010 ft | 352 kts | 213° |
| 2026-05-05 11:00 | 44.28639 | 8.27460 | 25591 ft | 349 kts | 225° |
| 2026-05-05 11:00 | 44.27110 | 8.24847 | 25187 ft | 347 kts | 234° |
| 2026-05-05 11:01 | 44.25745 | 8.22082 | 24775 ft | 344 kts | 234° |
| 2026-05-05 11:01 | 44.24370 | 8.19309 | 24350 ft | 343 kts | 234° |
| 2026-05-05 11:01 | 44.23016 | 8.16584 | 23936 ft | 340 kts | 234° |
| 2026-05-05 11:01 | 44.21673 | 8.13884 | 23511 ft | 337 kts | 234° |
| 2026-05-05 11:02 | 44.20789 | 8.12110 | 23234 ft | 335 kts | 234° |
| 2026-05-05 11:02 | 44.19463 | 8.09458 | 22806 ft | 332 kts | 233° |
| 2026-05-05 11:02 | 44.18146 | 8.06820 | 22366 ft | 330 kts | 234° |
| 2026-05-05 11:02 | 44.16841 | 8.04205 | 21934 ft | 328 kts | 234° |
| 2026-05-05 11:03 | 44.15544 | 8.01608 | 21498 ft | 325 kts | 234° |
| 2026-05-05 11:03 | 44.14259 | 7.99030 | 21062 ft | 323 kts | 234° |
| 2026-05-05 11:03 | 44.12979 | 7.96471 | 20629 ft | 321 kts | 233° |
| 2026-05-05 11:03 | 44.11711 | 7.93936 | 20194 ft | 318 kts | 233° |
| 2026-05-05 11:04 | 44.10446 | 7.91415 | 19759 ft | 316 kts | 233° |
| 2026-05-05 11:04 | 44.09191 | 7.88912 | 19326 ft | 314 kts | 233° |
| 2026-05-05 11:04 | 44.07944 | 7.86429 | 18912 ft | 312 kts | 233° |
| 2026-05-05 11:04 | 44.06704 | 7.83958 | 18480 ft | 311 kts | 234° |
| 2026-05-05 11:05 | 44.05472 | 7.81507 | 18058 ft | 308 kts | 233° |
| 2026-05-05 11:05 | 44.04231 | 7.79044 | 17635 ft | 306 kts | 233° |
| 2026-05-05 11:05 | 44.03014 | 7.76628 | 17213 ft | 304 kts | 233° |
| 2026-05-05 11:05 | 44.01804 | 7.74219 | 16919 ft | 303 kts | 234° |
| 2026-05-05 11:06 | 44.00598 | 7.71811 | 16804 ft | 305 kts | 234° |
| 2026-05-05 11:06 | 43.99386 | 7.69398 | 16676 ft | 305 kts | 234° |
| 2026-05-05 11:06 | 43.98171 | 7.66989 | 16541 ft | 304 kts | 234° |
| 2026-05-05 11:06 | 43.96954 | 7.64578 | 16410 ft | 305 kts | 234° |
| 2026-05-05 11:07 | 43.95739 | 7.62174 | 16280 ft | 303 kts | 234° |
| 2026-05-05 11:07 | 43.94529 | 7.59782 | 16146 ft | 302 kts | 234° |
| 2026-05-05 11:07 | 43.93323 | 7.57398 | 16007 ft | 302 kts | 234° |
| 2026-05-05 11:07 | 43.92114 | 7.55013 | 15876 ft | 302 kts | 234° |
| 2026-05-05 11:08 | 43.90907 | 7.52631 | 15753 ft | 301 kts | 234° |
| 2026-05-05 11:08 | 43.89706 | 7.50261 | 15622 ft | 300 kts | 234° |
| 2026-05-05 11:08 | 43.88503 | 7.47892 | 15491 ft | 300 kts | 234° |
| 2026-05-05 11:08 | 43.87304 | 7.45535 | 15364 ft | 299 kts | 234° |
| 2026-05-05 11:09 | 43.86098 | 7.43195 | 15231 ft | 299 kts | 231° |
| 2026-05-05 11:09 | 43.84544 | 7.41329 | 15100 ft | 298 kts | 210° |
| 2026-05-05 11:09 | 43.82549 | 7.40509 | 14980 ft | 303 kts | 187° |
| 2026-05-05 11:09 | 43.80451 | 7.40946 | 14838 ft | 312 kts | 162° |
| 2026-05-05 11:10 | 43.78594 | 7.42574 | 14700 ft | 321 kts | 146° |
| 2026-05-05 11:10 | 43.76849 | 7.44518 | 14547 ft | 322 kts | 145° |
| 2026-05-05 11:10 | 43.75113 | 7.46473 | 14402 ft | 322 kts | 146° |
| 2026-05-05 11:10 | 43.73383 | 7.48429 | 14267 ft | 321 kts | 146° |
| 2026-05-05 11:11 | 43.71658 | 7.50372 | 14116 ft | 319 kts | 146° |
| 2026-05-05 11:11 | 43.69936 | 7.52307 | 13977 ft | 319 kts | 144° |
| 2026-05-05 11:11 | 43.68397 | 7.54542 | 13835 ft | 325 kts | 131° |
| 2026-05-05 11:11 | 43.67241 | 7.57267 | 13350 ft | 333 kts | 117° |
| 2026-05-05 11:12 | 43.66447 | 7.60323 | 12843 ft | 333 kts | 113° |
| 2026-05-05 11:12 | 43.65689 | 7.63336 | 12344 ft | 331 kts | 113° |
| 2026-05-05 11:12 | 43.64926 | 7.66329 | 11842 ft | 329 kts | 113° |
| 2026-05-05 11:12 | 43.64167 | 7.69285 | 11341 ft | 325 kts | 114° |
| 2026-05-05 11:13 | 43.63326 | 7.72144 | 10893 ft | 315 kts | 124° |
| 2026-05-05 11:13 | 43.61974 | 7.74448 | 10639 ft | 306 kts | 144° |
| 2026-05-05 11:13 | 43.60195 | 7.75958 | 10394 ft | 297 kts | 163° |
| 2026-05-05 11:13 | 43.58207 | 7.76551 | 10143 ft | 290 kts | 181° |
| 2026-05-05 11:14 | 43.56233 | 7.76238 | 9909 ft | 282 kts | 198° |
| 2026-05-05 11:14 | 43.54360 | 7.75564 | 9782 ft | 275 kts | 198° |
| 2026-05-05 11:14 | 43.52519 | 7.74905 | 9658 ft | 273 kts | 198° |
| 2026-05-05 11:14 | 43.50683 | 7.74252 | 9533 ft | 273 kts | 197° |
| 2026-05-05 11:15 | 43.48845 | 7.73600 | 9407 ft | 273 kts | 197° |
| 2026-05-05 11:15 | 43.47010 | 7.72950 | 9282 ft | 272 kts | 197° |
| 2026-05-05 11:15 | 43.45183 | 7.72270 | 9154 ft | 271 kts | 202° |
| 2026-05-05 11:15 | 43.43563 | 7.71002 | 9036 ft | 268 kts | 222° |
| 2026-05-05 11:16 | 43.42374 | 7.69064 | 8903 ft | 266 kts | 240° |
| 2026-05-05 11:16 | 43.41739 | 7.66686 | 8774 ft | 267 kts | 259° |
| 2026-05-05 11:16 | 43.41731 | 7.64139 | 8649 ft | 270 kts | 277° |
| 2026-05-05 11:16 | 43.42365 | 7.61696 | 8522 ft | 275 kts | 295° |
| 2026-05-05 11:17 | 43.43182 | 7.59329 | 8390 ft | 272 kts | 280° |
| 2026-05-05 11:17 | 43.43070 | 7.56814 | 8264 ft | 265 kts | 247° |
| 2026-05-05 11:17 | 43.41923 | 7.54882 | 8139 ft | 266 kts | 214° |
| 2026-05-05 11:17 | 43.40244 | 7.53796 | 8013 ft | 267 kts | 207° |
| 2026-05-05 11:18 | 43.38662 | 7.52420 | 7886 ft | 266 kts | 222° |
| 2026-05-05 11:18 | 43.37412 | 7.50562 | 7762 ft | 264 kts | 233° |
| 2026-05-05 11:18 | 43.36403 | 7.48461 | 7638 ft | 263 kts | 239° |
| 2026-05-05 11:18 | 43.35510 | 7.46270 | 7512 ft | 263 kts | 242° |
| 2026-05-05 11:19 | 43.34685 | 7.44028 | 7384 ft | 263 kts | 244° |
| 2026-05-05 11:19 | 43.33921 | 7.41742 | 7262 ft | 263 kts | 246° |
| 2026-05-05 11:19 | 43.33232 | 7.39410 | 7131 ft | 263 kts | 249° |
| 2026-05-05 11:19 | 43.32632 | 7.37036 | 7014 ft | 263 kts | 252° |
| 2026-05-05 11:20 | 43.32126 | 7.34623 | 6886 ft | 263 kts | 254° |
| 2026-05-05 11:20 | 43.31712 | 7.32182 | 6761 ft | 263 kts | 257° |
| 2026-05-05 11:20 | 43.31393 | 7.29710 | 6634 ft | 263 kts | 260° |
| 2026-05-05 11:20 | 43.31168 | 7.27216 | 6509 ft | 263 kts | 263° |
| 2026-05-05 11:21 | 43.31036 | 7.24709 | 6387 ft | 263 kts | 266° |
| 2026-05-05 11:21 | 43.31002 | 7.22192 | 6258 ft | 264 kts | 269° |
| 2026-05-05 11:21 | 43.31062 | 7.19679 | 6131 ft | 264 kts | 272° |
| 2026-05-05 11:21 | 43.31217 | 7.17167 | 6007 ft | 265 kts | 275° |
| 2026-05-05 11:22 | 43.31466 | 7.14662 | 5880 ft | 264 kts | 277° |
| 2026-05-05 11:22 | 43.31808 | 7.12185 | 5755 ft | 264 kts | 281° |
| 2026-05-05 11:22 | 43.32244 | 7.09734 | 5630 ft | 265 kts | 283° |
| 2026-05-05 11:22 | 43.32778 | 7.07311 | 5504 ft | 265 kts | 287° |
| 2026-05-05 11:23 | 43.33399 | 7.04934 | 5379 ft | 265 kts | 289° |
| 2026-05-05 11:23 | 43.34109 | 7.02599 | 5254 ft | 264 kts | 292° |
| 2026-05-05 11:23 | 43.34891 | 7.00368 | 5124 ft | 255 kts | 295° |
| 2026-05-05 11:23 | 43.35723 | 6.98265 | 4995 ft | 246 kts | 298° |
| 2026-05-05 11:24 | 43.36596 | 6.96299 | 4870 ft | 237 kts | 301° |
| 2026-05-05 11:24 | 43.37508 | 6.94458 | 4744 ft | 228 kts | 304° |
| 2026-05-05 11:24 | 43.38436 | 6.92745 | 4614 ft | 220 kts | 306° |
| 2026-05-05 11:24 | 43.39408 | 6.91158 | 4488 ft | 215 kts | 315° |
| 2026-05-05 11:25 | 43.40714 | 6.90134 | 4360 ft | 216 kts | 343° |
| 2026-05-05 11:25 | 43.42211 | 6.90040 | 4238 ft | 219 kts | 11° |
| 2026-05-05 11:25 | 43.43581 | 6.90911 | 4113 ft | 219 kts | 39° |
| 2026-05-05 11:25 | 43.44684 | 6.92367 | 4030 ft | 220 kts | 44° |
| 2026-05-05 11:26 | 43.45766 | 6.93849 | 3994 ft | 219 kts | 44° |
| 2026-05-05 11:26 | 43.46846 | 6.95324 | 4008 ft | 220 kts | 44° |
| 2026-05-05 11:26 | 43.47926 | 6.96799 | 4006 ft | 219 kts | 44° |
| 2026-05-05 11:26 | 43.48978 | 6.98230 | 4002 ft | 205 kts | 45° |
| 2026-05-05 11:27 | 43.49972 | 6.99584 | 3990 ft | 199 kts | 44° |
| 2026-05-05 11:27 | 43.50954 | 7.00921 | 3916 ft | 199 kts | 44° |
| 2026-05-05 11:27 | 43.51930 | 7.02255 | 3641 ft | 196 kts | 44° |
| 2026-05-05 11:27 | 43.52910 | 7.03594 | 3386 ft | 195 kts | 44° |
| 2026-05-05 11:28 | 43.53878 | 7.04917 | 3123 ft | 191 kts | 44° |
| 2026-05-05 11:28 | 43.54804 | 7.06183 | 2876 ft | 185 kts | 44° |
| 2026-05-05 11:28 | 43.55705 | 7.07415 | 2634 ft | 180 kts | 44° |
| 2026-05-05 11:28 | 43.56586 | 7.08618 | 2399 ft | 176 kts | 45° |
| 2026-05-05 11:29 | 43.57443 | 7.09791 | 2170 ft | 172 kts | 45° |
| 2026-05-05 11:29 | 43.58303 | 7.10967 | 1935 ft | 171 kts | 45° |
| 2026-05-05 11:29 | 43.59140 | 7.12115 | 1711 ft | 167 kts | 45° |
| 2026-05-05 11:29 | 43.59925 | 7.13186 | 1522 ft | 147 kts | 45° |
| 2026-05-05 11:30 | 43.60623 | 7.14143 | 1290 ft | 138 kts | 47° |
| 2026-05-05 11:30 | 43.61290 | 7.15061 | 1131 ft | 134 kts | 47° |
| 2026-05-05 11:30 | 43.61734 | 7.15671 | 1023 ft | 133 kts | 47° |
| 2026-05-05 11:30 | 43.62397 | 7.16580 | 836 ft | 132 kts | 47° |
| 2026-05-05 11:31 | 43.63049 | 7.17469 | 661 ft | 131 kts | 47° |
| 2026-05-05 11:31 | 43.63695 | 7.18358 | 487 ft | 131 kts | 47° |
| 2026-05-05 11:31 | 43.64339 | 7.19246 | 321 ft | 131 kts | 47° |
| 2026-05-05 11:31 | 43.65011 | 7.20164 | 128 ft | 133 kts | 47° |
| 2026-05-05 11:32 | 43.65686 | 7.21096 | 22 ft | 111 kts | 45° |
| 2026-05-05 11:32 | 43.66031 | 7.21575 | 21 ft | 34 kts | 45° |
| 2026-05-05 11:32 | 43.66126 | 7.21706 | 21 ft | 10 kts | 45° |
| 2026-05-05 11:32 | 43.66195 | 7.21755 | 21 ft | 13 kts | 357° |
| 2026-05-05 11:33 | 43.66253 | 7.21696 | 21 ft | 6 kts | 314° |
| 2026-05-05 11:33 | 43.66254 | 7.21694 | 21 ft | 0 kts | 316° |
| 2026-05-05 11:34 | 43.66255 | 7.21693 | 21 ft | 1 kts | 316° |
| 2026-05-05 11:34 | 43.66263 | 7.21683 | 21 ft | 2 kts | 316° |
| 2026-05-05 11:34 | 43.66272 | 7.21670 | 21 ft | 2 kts | 315° |
| 2026-05-05 11:34 | 43.66286 | 7.21652 | 21 ft | 5 kts | 315° |
| 2026-05-05 11:35 | 43.66318 | 7.21607 | 23 ft | 9 kts | 315° |
| 2026-05-05 11:35 | 43.66370 | 7.21535 | 21 ft | 11 kts | 304° |
| 2026-05-05 11:35 | 43.66351 | 7.21421 | 21 ft | 14 kts | 258° |
| 2026-05-05 11:35 | 43.66371 | 7.21340 | 21 ft | 10 kts | 342° |
| 2026-05-05 11:36 | 43.66423 | 7.21328 | 21 ft | 4 kts | 350° |
| 2026-05-05 11:36 | 43.66424 | 7.21328 | 21 ft | 0 kts | 350° |